Terminal Aerodrome Forecast
Issued by NWS Paducah, KY

Home | Current Version | Previous Version | Text Only | Print | Product List | Glossary On
Versions: 1 2 3 4 5 6 7 8 9 10 11 12 13 14 15 16 17
000
FTUS43 KPAH 231100
TAFPAH
TAF
KPAH 231127Z 2312/2412 03005KT P6SM OVC110
     FM231700 04005KT P6SM BKN050 OVC100
      TEMPO 2318/2322 5SM -RASN OVC040
     FM240400 VRB02KT P6SM SCT250=

USA.gov is the U.S. government's official web portal to all federal, state and local government web resources and services.